Terminal Aerodrome Forecast
Issued by NWS

Home | Current Version | Previous Version | Text Only | Print | Product List | Glossary On
Versions: 1 2 3 4 5 6 7 8 9 10 11 12 13 14 15 16 17 18 19 20 21 22 23 24 25 26 27 28 29 30 31 32 33 34
000
FTUS46 KEKA 220839 AAA
TAFUKI
TAF AMD
KUKI 220839Z 2209/2306 15008G16KT 4SM -RA BR FEW011 SCT025 OVC040
      TEMPO 2209/2212 2SM +RA FEW008 BKN015
     FM221200 17008G16KT 2SM RA BR OVC008
     FM221700 29008KT P6SM VCSH BKN012 OVC250
     FM222100 31006KT P6SM SCT025 BKN250
     FM230000 32003KT P6SM SKC=

USA.gov is the U.S. government's official web portal to all federal, state and local government web resources and services.